createdAt,value
2022-11-26T00:00:12.034Z,76.50
2022-11-26T00:02:44.201Z,76.60
2022-11-26T00:05:16.802Z,76.60
2022-11-26T00:07:50.801Z,76.60
2022-11-26T00:10:24.869Z,76.60
2022-11-26T00:12:53.898Z,76.60
2022-11-26T00:15:25.277Z,76.60
2022-11-26T00:17:57.436Z,76.60
2022-11-26T00:20:30.267Z,76.60
2022-11-26T00:23:04.402Z,76.40
2022-11-26T00:25:44.007Z,77.00
2022-11-26T00:28:23.705Z,78.00
2022-11-26T00:30:56.198Z,78.10
2022-11-26T00:33:26.132Z,78.70
2022-11-26T00:35:59.179Z,80.30
2022-11-26T00:38:30.303Z,79.90
2022-11-26T00:41:00.718Z,80.10
2022-11-26T00:43:29.510Z,80.10
2022-11-26T00:46:01.039Z,80.50
2022-11-26T00:48:31.261Z,80.50
2022-11-26T00:51:01.678Z,80.60
2022-11-26T00:53:31.890Z,80.30
2022-11-26T00:56:05.074Z,80.70
2022-11-26T00:58:37.275Z,80.60
2022-11-26T01:01:06.502Z,80.70
2022-11-26T01:03:36.341Z,80.70
2022-11-26T01:06:05.520Z,80.40
2022-11-26T01:08:36.196Z,80.10
2022-11-26T01:11:06.806Z,80.30
2022-11-26T01:13:35.848Z,80.40
2022-11-26T01:16:13.498Z,80.90
2022-11-26T01:18:43.143Z,81.20
2022-11-26T01:21:15.645Z,81.40
2022-11-26T01:23:44.497Z,81.50
2022-11-26T01:26:18.946Z,79.70
2022-11-26T01:28:48.448Z,78.90
2022-11-26T01:31:20.311Z,79.60
2022-11-26T01:33:49.198Z,80.80
2022-11-26T01:36:25.059Z,81.70
2022-11-26T01:38:57.404Z,81.80
2022-11-26T01:41:41.920Z,81.90
2022-11-26T01:44:18.965Z,81.30
2022-11-26T01:46:48.880Z,81.80
2022-11-26T01:49:22.265Z,81.90
2022-11-26T01:51:58.189Z,82.60
2022-11-26T01:54:29.113Z,82.00
2022-11-26T01:57:05.947Z,82.20
2022-11-26T01:59:39.917Z,81.90
2022-11-26T02:02:12.294Z,81.90
2022-11-26T02:04:47.781Z,81.90
2022-11-26T02:07:18.675Z,82.30
2022-11-26T02:09:48.453Z,82.20
2022-11-26T02:12:21.244Z,82.00
2022-11-26T02:14:51.753Z,80.40
2022-11-26T02:17:25.594Z,80.40
2022-11-26T02:20:18.169Z,80.60
2022-11-26T02:23:06.642Z,81.40
2022-11-26T02:25:55.739Z,81.90
2022-11-26T02:28:43.381Z,82.50
2022-11-26T02:31:15.164Z,81.80
2022-11-26T02:33:46.590Z,81.70
2022-11-26T02:36:18.270Z,80.50
2022-11-26T02:38:47.859Z,81.20
2022-11-26T02:41:18.914Z,81.60
2022-11-26T02:43:51.266Z,81.40
2022-11-26T02:46:23.869Z,80.30
2022-11-26T02:48:55.113Z,81.00
2022-11-26T02:51:31.977Z,80.90
2022-11-26T02:54:06.846Z,80.90
2022-11-26T02:56:39.681Z,80.90
2022-11-26T02:59:09.129Z,81.20
2022-11-26T03:01:41.508Z,81.20
2022-11-26T03:04:19.081Z,80.60
2022-11-26T03:06:51.621Z,79.30
2022-11-26T03:09:23.781Z,80.50
2022-11-26T03:11:52.674Z,79.80
2022-11-26T03:14:21.320Z,80.60
2022-11-26T03:16:52.407Z,79.50
2022-11-26T03:19:23.309Z,79.30
2022-11-26T03:21:52.264Z,79.20
2022-11-26T03:24:22.492Z,79.10
2022-11-26T03:26:51.810Z,79.50
2022-11-26T03:29:23.386Z,79.40
2022-11-26T03:31:55.950Z,79.50
2022-11-26T03:34:26.171Z,79.40
2022-11-26T03:36:55.737Z,78.60
2022-11-26T03:39:26.985Z,78.40
2022-11-26T03:41:56.880Z,78.50
2022-11-26T03:44:26.021Z,78.90
2022-11-26T03:46:58.886Z,79.90
2022-11-26T03:49:29.878Z,80.30
2022-11-26T03:51:59.162Z,80.30
2022-11-26T03:54:28.218Z,80.30
2022-11-26T03:57:00.651Z,80.60
2022-11-26T03:59:30.337Z,80.70
2022-11-26T04:02:01.790Z,80.60
2022-11-26T04:04:33.679Z,80.60
2022-11-26T04:07:05.520Z,80.60
2022-11-26T04:09:36.687Z,80.80
2022-11-26T04:12:06.294Z,81.00
2022-11-26T04:14:37.968Z,81.40
2022-11-26T04:17:10.290Z,81.40
2022-11-26T04:19:42.563Z,81.90
2022-11-26T04:22:11.747Z,82.20
2022-11-26T04:24:45.128Z,81.70
2022-11-26T04:27:16.592Z,81.20
2022-11-26T04:29:48.853Z,80.90
2022-11-26T04:32:20.666Z,80.70
2022-11-26T04:34:51.558Z,80.70
2022-11-26T04:37:22.648Z,80.70
2022-11-26T04:39:55.007Z,81.30
2022-11-26T04:42:25.452Z,81.50
2022-11-26T04:44:55.456Z,81.70
2022-11-26T04:47:27.748Z,81.20
2022-11-26T04:49:58.646Z,81.00
2022-11-26T04:52:28.419Z,80.90
2022-11-26T04:55:01.581Z,80.70
2022-11-26T04:57:31.854Z,80.10
2022-11-26T05:00:02.752Z,80.20
2022-11-26T05:02:32.936Z,80.00
2022-11-26T05:05:02.106Z,79.70
2022-11-26T05:07:30.829Z,80.10
2022-11-26T05:09:59.625Z,80.10
2022-11-26T05:12:28.319Z,80.50
2022-11-26T05:14:56.937Z,80.00
2022-11-26T05:17:25.673Z,79.60
2022-11-26T05:19:56.004Z,80.30
2022-11-26T05:22:24.645Z,80.80
2022-11-26T05:24:53.320Z,81.40
2022-11-26T05:27:21.970Z,81.20
2022-11-26T05:29:50.837Z,80.20
2022-11-26T05:32:19.371Z,80.00
2022-11-26T05:34:47.987Z,80.10
2022-11-26T05:37:17.999Z,80.50
2022-11-26T05:39:46.724Z,80.90
2022-11-26T05:42:15.674Z,80.50
2022-11-26T05:44:44.353Z,79.70
2022-11-26T05:47:12.893Z,80.20
2022-11-26T05:49:41.507Z,80.00
2022-11-26T05:52:10.056Z,79.90
2022-11-26T05:54:40.251Z,79.90
2022-11-26T05:57:09.011Z,79.70
2022-11-26T05:59:37.651Z,80.00
2022-11-26T06:02:06.537Z,79.90
2022-11-26T06:04:35.222Z,80.20
2022-11-26T06:07:03.677Z,80.50
2022-11-26T06:09:32.340Z,80.50
2022-11-26T06:12:02.361Z,80.50
2022-11-26T06:14:30.974Z,80.60
2022-11-26T06:16:59.614Z,80.40
2022-11-26T06:19:28.498Z,80.00
2022-11-26T06:21:57.114Z,80.10
2022-11-26T06:24:25.615Z,80.50
2022-11-26T06:26:54.701Z,80.30
2022-11-26T06:29:28.077Z,80.00
2022-11-26T06:31:57.218Z,80.10
2022-11-26T06:34:26.034Z,80.20
2022-11-26T06:36:54.564Z,81.30
2022-11-26T06:39:23.163Z,80.70
2022-11-26T06:41:51.755Z,80.90
2022-11-26T06:44:20.510Z,80.80
2022-11-26T06:46:50.626Z,81.30
2022-11-26T06:49:19.241Z,80.90
2022-11-26T06:51:47.835Z,81.80
2022-11-26T06:54:16.661Z,82.50
2022-11-26T06:56:45.831Z,82.50
2022-11-26T06:59:14.508Z,82.60
2022-11-26T07:01:43.251Z,82.30
2022-11-26T07:04:13.861Z,82.60
2022-11-26T07:06:42.377Z,82.90
2022-11-26T07:09:11.405Z,82.60
2022-11-26T07:11:40.192Z,82.20
2022-11-26T07:14:08.927Z,82.30
2022-11-26T07:16:37.758Z,82.30
2022-11-26T07:19:06.302Z,81.70
2022-11-26T07:21:36.483Z,81.60
2022-11-26T07:24:05.877Z,80.80
2022-11-26T07:26:34.474Z,80.70
2022-11-26T07:29:03.029Z,80.50
2022-11-26T07:31:31.660Z,80.20
2022-11-26T07:34:00.319Z,79.90
2022-11-26T07:36:31.174Z,78.80
2022-11-26T07:39:03.642Z,79.50
2022-11-26T07:41:32.247Z,78.30
2022-11-26T07:44:00.883Z,79.30
2022-11-26T07:46:29.662Z,79.70
2022-11-26T07:48:58.504Z,82.10
2022-11-26T07:51:28.634Z,82.40
2022-11-26T07:53:57.872Z,83.40
2022-11-26T07:56:28.016Z,83.80
2022-11-26T07:58:56.644Z,83.30
2022-11-26T08:01:27.430Z,82.80
2022-11-26T08:03:56.616Z,83.50
2022-11-26T08:06:26.158Z,84.70
2022-11-26T08:08:54.806Z,85.60
2022-11-26T08:11:24.467Z,85.70
2022-11-26T08:13:55.760Z,85.30
2022-11-26T08:16:24.373Z,85.70
2022-11-26T08:18:54.504Z,86.20
2022-11-26T08:21:23.467Z,86.20
2022-11-26T08:23:52.593Z,87.20
2022-11-26T08:26:27.617Z,87.70
2022-11-26T08:29:01.804Z,87.50
2022-11-26T08:31:30.814Z,87.50
2022-11-26T08:34:00.033Z,87.70
2022-11-26T08:36:29.174Z,87.90
2022-11-26T08:38:58.015Z,88.20
2022-11-26T08:41:26.724Z,87.80
2022-11-26T08:44:10.917Z,87.70
2022-11-26T08:46:42.096Z,87.80
2022-11-26T08:49:12.663Z,88.00
2022-11-26T08:51:42.011Z,88.50
2022-11-26T08:54:11.027Z,88.90
2022-11-26T08:56:39.831Z,90.10
2022-11-26T08:59:08.348Z,90.20
2022-11-26T09:01:37.024Z,90.20
2022-11-26T09:04:07.469Z,89.40
2022-11-26T09:06:37.868Z,89.40
2022-11-26T09:09:17.710Z,88.20
2022-11-26T09:11:48.161Z,87.40
2022-11-26T09:14:18.746Z,87.40
2022-11-26T09:16:47.883Z,86.70
2022-11-26T09:19:18.252Z,86.70
2022-11-26T09:21:47.457Z,87.50
2022-11-26T09:24:16.688Z,87.10
2022-11-26T09:26:46.009Z,87.40
2022-11-26T09:29:15.564Z,86.90
2022-11-26T09:32:07.465Z,86.50
2022-11-26T09:34:35.654Z,87.10
2022-11-26T09:37:04.320Z,87.10
2022-11-26T09:39:32.863Z,87.30
2022-11-26T09:42:05.705Z,87.20
2022-11-26T09:44:46.168Z,86.20
2022-11-26T09:47:17.181Z,86.80
2022-11-26T09:49:52.024Z,87.60
2022-11-26T09:52:22.561Z,87.40
2022-11-26T09:54:52.965Z,86.40
2022-11-26T09:57:24.125Z,86.30
2022-11-26T09:59:53.177Z,86.10
2022-11-26T10:02:21.779Z,85.80
2022-11-26T10:04:51.920Z,85.20
2022-11-26T10:07:29.400Z,84.70
2022-11-26T10:10:03.862Z,84.70
2022-11-26T10:12:56.575Z,83.40
2022-11-26T10:15:30.283Z,83.10
2022-11-26T10:18:01.152Z,83.60
2022-11-26T10:20:44.698Z,83.20
2022-11-26T10:23:19.409Z,82.70
2022-11-26T10:25:49.831Z,82.60
2022-11-26T10:28:21.844Z,81.60
2022-11-26T10:30:54.258Z,81.70
2022-11-26T10:33:22.813Z,80.50
2022-11-26T10:35:52.013Z,80.70
2022-11-26T10:38:21.973Z,80.80
2022-11-26T10:40:50.768Z,80.40
2022-11-26T10:43:20.569Z,82.60
2022-11-26T10:45:49.975Z,82.50
2022-11-26T10:48:28.631Z,82.10
2022-11-26T10:51:02.058Z,81.20
2022-11-26T10:53:33.975Z,79.70
2022-11-26T10:56:05.830Z,78.40
2022-11-26T10:58:38.993Z,77.20
2022-11-26T11:01:08.521Z,76.90
2022-11-26T11:04:07.197Z,77.80
2022-11-26T11:06:36.002Z,78.00
2022-11-26T11:09:23.419Z,76.80
2022-11-26T11:12:08.958Z,76.80
2022-11-26T11:14:42.435Z,76.20
2022-11-26T11:17:21.080Z,74.10
2022-11-26T11:19:49.641Z,75.00
2022-11-26T11:22:19.972Z,75.40
2022-11-26T11:24:50.431Z,77.20
2022-11-26T11:27:26.498Z,74.00
2022-11-26T11:30:01.029Z,74.40
2022-11-26T11:32:37.702Z,72.40
2022-11-26T11:35:24.377Z,73.20
2022-11-26T11:37:53.950Z,74.30
2022-11-26T11:40:27.837Z,70.80
2022-11-26T11:42:58.403Z,69.70
2022-11-26T11:45:30.155Z,69.30
2022-11-26T11:48:01.606Z,68.10
2022-11-26T11:50:34.090Z,69.20
2022-11-26T11:53:20.679Z,66.90
2022-11-26T11:56:02.485Z,65.10
2022-11-26T11:58:39.535Z,65.60
2022-11-26T12:01:13.000Z,63.10
2022-11-26T12:03:51.338Z,62.10
2022-11-26T12:06:24.671Z,63.60
2022-11-26T12:08:57.187Z,65.00
2022-11-26T12:11:31.530Z,65.70
2022-11-26T12:14:02.569Z,66.90
2022-11-26T12:16:34.393Z,65.80
2022-11-26T12:19:04.311Z,65.20
2022-11-26T12:21:36.446Z,65.70
2022-11-26T12:24:08.627Z,65.80
2022-11-26T12:26:41.018Z,63.90
2022-11-26T12:29:13.169Z,63.90
2022-11-26T12:31:44.667Z,64.90
2022-11-26T12:34:14.679Z,66.50
2022-11-26T12:36:45.337Z,65.90
2022-11-26T12:39:19.180Z,63.90
2022-11-26T12:41:52.163Z,65.40
2022-11-26T12:44:23.945Z,65.20
2022-11-26T12:46:55.766Z,65.30
2022-11-26T12:49:28.550Z,63.30
2022-11-26T12:52:03.232Z,64.20
2022-11-26T12:54:34.168Z,64.70
2022-11-26T12:57:05.514Z,65.40
2022-11-26T12:59:37.007Z,66.60
2022-11-26T13:02:17.039Z,66.00
2022-11-26T13:04:45.691Z,67.50
2022-11-26T13:07:17.766Z,68.10
2022-11-26T13:09:52.471Z,68.30
2022-11-26T13:12:27.917Z,65.70
2022-11-26T13:15:00.256Z,65.60
2022-11-26T13:17:32.316Z,65.10
2022-11-26T13:20:06.171Z,65.80
2022-11-26T13:22:40.886Z,64.60
2022-11-26T13:25:31.412Z,64.60
2022-11-26T13:28:06.035Z,63.20
2022-11-26T13:30:39.436Z,62.50
2022-11-26T13:33:22.677Z,60.70
2022-11-26T13:36:00.816Z,59.30
2022-11-26T13:38:32.667Z,60.60
2022-11-26T13:41:15.297Z,60.40
2022-11-26T13:44:03.381Z,60.80
2022-11-26T13:46:34.735Z,61.70
2022-11-26T13:49:04.535Z,60.20
2022-11-26T13:51:36.205Z,61.40
2022-11-26T13:54:08.075Z,62.50
2022-11-26T13:56:38.446Z,63.00
2022-11-26T13:59:09.864Z,64.70
2022-11-26T14:01:40.525Z,64.70
2022-11-26T14:04:10.412Z,65.70
2022-11-26T14:06:39.576Z,66.90
2022-11-26T14:09:08.223Z,65.10
2022-11-26T14:11:57.014Z,65.50
2022-11-26T14:14:34.186Z,65.00
2022-11-26T14:17:13.316Z,64.30
2022-11-26T14:19:58.702Z,64.40
2022-11-26T14:22:28.764Z,64.10
2022-11-26T14:24:59.024Z,64.30
2022-11-26T14:27:29.395Z,63.80
2022-11-26T14:30:20.618Z,63.30
2022-11-26T14:32:53.015Z,63.30
2022-11-26T14:35:25.251Z,63.60
2022-11-26T14:37:58.591Z,63.90
2022-11-26T14:40:28.295Z,64.10
2022-11-26T14:43:16.941Z,64.10
2022-11-26T14:45:48.673Z,63.60
2022-11-26T14:48:25.683Z,63.30
2022-11-26T14:50:55.187Z,63.30
2022-11-26T14:53:24.842Z,63.00
2022-11-26T14:55:53.797Z,62.80
2022-11-26T14:58:25.764Z,62.00
2022-11-26T15:01:07.405Z,61.50
2022-11-26T15:03:36.094Z,59.70
2022-11-26T15:06:04.735Z,57.40
2022-11-26T15:08:33.433Z,56.40
2022-11-26T15:11:03.021Z,56.00
2022-11-26T15:13:33.032Z,56.20
2022-11-26T15:16:02.402Z,56.60
2022-11-26T15:18:33.863Z,56.90
2022-11-26T15:21:03.483Z,57.10
2022-11-26T15:23:33.166Z,57.70
2022-11-26T15:26:01.757Z,58.00
2022-11-26T15:28:30.393Z,58.20
2022-11-26T15:30:59.640Z,58.00
2022-11-26T15:33:28.830Z,58.50
2022-11-26T15:35:59.272Z,58.80
2022-11-26T15:38:29.394Z,59.30
2022-11-26T15:40:58.531Z,59.90
2022-11-26T15:43:29.211Z,60.00
2022-11-26T15:45:59.935Z,58.90
2022-11-26T15:48:50.911Z,60.20
2022-11-26T15:51:29.418Z,60.70
2022-11-26T15:54:01.416Z,60.40
2022-11-26T15:56:31.303Z,60.40
2022-11-26T15:59:00.992Z,59.50
2022-11-26T16:01:32.613Z,58.60
2022-11-26T16:04:04.674Z,58.00
2022-11-26T16:06:35.624Z,59.30
2022-11-26T16:09:07.776Z,59.20
2022-11-26T16:11:37.645Z,59.80
2022-11-26T16:14:29.328Z,60.10
2022-11-26T16:16:58.374Z,60.00
2022-11-26T16:19:28.263Z,59.70
2022-11-26T16:21:58.751Z,58.50
2022-11-26T16:24:31.108Z,56.50
2022-11-26T16:27:01.002Z,58.60
2022-11-26T16:29:30.193Z,61.70
2022-11-26T16:31:58.661Z,63.30
2022-11-26T16:34:27.977Z,62.50
2022-11-26T16:37:02.156Z,62.20
2022-11-26T16:39:34.817Z,61.90
2022-11-26T16:42:10.060Z,61.10
2022-11-26T16:44:38.829Z,61.90
2022-11-26T16:47:10.132Z,62.90
2022-11-26T16:49:38.747Z,62.80
2022-11-26T16:52:10.900Z,63.70
2022-11-26T16:54:39.851Z,63.90
2022-11-26T16:57:12.293Z,64.60
2022-11-26T16:59:41.208Z,63.80
2022-11-26T17:02:15.341Z,64.00
2022-11-26T17:04:43.912Z,63.30
2022-11-26T17:07:15.055Z,62.00
2022-11-26T17:09:43.873Z,61.00
2022-11-26T17:12:15.937Z,62.20
2022-11-26T17:14:44.522Z,63.80
2022-11-26T17:17:13.967Z,63.10
2022-11-26T17:19:42.660Z,62.60
2022-11-26T17:22:11.862Z,62.70
2022-11-26T17:24:42.186Z,58.00
2022-11-26T17:27:12.594Z,61.00
2022-11-26T17:29:43.017Z,62.40
2022-11-26T17:32:12.925Z,62.80
2022-11-26T17:34:41.576Z,62.70
2022-11-26T17:37:11.548Z,62.00
2022-11-26T17:39:41.703Z,61.70
2022-11-26T17:42:10.704Z,61.30
2022-11-26T17:44:39.260Z,57.10
2022-11-26T17:47:17.011Z,56.20
2022-11-26T17:49:46.659Z,58.30
2022-11-26T17:52:15.470Z,61.10
2022-11-26T17:54:45.909Z,63.10
2022-11-26T17:57:15.467Z,61.70
2022-11-26T17:59:44.360Z,62.30
2022-11-26T18:02:12.926Z,63.90
2022-11-26T18:04:41.640Z,63.80
2022-11-26T18:07:12.635Z,63.70
2022-11-26T18:09:41.966Z,64.20
2022-11-26T18:12:20.247Z,63.60
2022-11-26T18:14:53.072Z,63.20
2022-11-26T18:17:21.600Z,62.60
2022-11-26T18:19:50.446Z,64.40
2022-11-26T18:22:20.789Z,63.50
2022-11-26T18:24:56.968Z,62.30
2022-11-26T18:27:28.905Z,65.30
2022-11-26T18:29:57.530Z,65.70
2022-11-26T18:32:26.063Z,65.20
2022-11-26T18:34:54.728Z,65.80
2022-11-26T18:37:23.326Z,66.10
2022-11-26T18:39:51.930Z,66.20
2022-11-26T18:42:37.511Z,65.90
2022-11-26T18:45:09.150Z,66.10
2022-11-26T18:47:37.847Z,66.30
2022-11-26T18:50:07.090Z,66.40
2022-11-26T18:52:35.653Z,66.30
2022-11-26T18:55:07.507Z,66.40
2022-11-26T18:57:36.059Z,66.50
2022-11-26T19:00:05.325Z,66.20
2022-11-26T19:02:36.327Z,68.60
2022-11-26T19:05:04.985Z,70.10
2022-11-26T19:07:34.128Z,70.70
2022-11-26T19:10:02.837Z,70.90
2022-11-26T19:12:31.586Z,71.30
2022-11-26T19:15:02.054Z,71.40
2022-11-26T19:17:30.576Z,71.10
2022-11-26T19:20:00.569Z,70.90
2022-11-26T19:22:29.336Z,69.90
2022-11-26T19:24:57.855Z,68.50
2022-11-26T19:27:26.388Z,67.70
2022-11-26T19:29:55.022Z,66.40
2022-11-26T19:32:23.815Z,66.20
2022-11-26T19:34:52.501Z,67.00
2022-11-26T19:37:22.624Z,66.20
2022-11-26T19:39:51.096Z,66.10
2022-11-26T19:42:19.694Z,66.50
2022-11-26T19:44:48.300Z,66.10
2022-11-26T19:47:16.847Z,63.80
2022-11-26T19:49:45.702Z,64.50
2022-11-26T19:52:14.382Z,64.00
2022-11-26T19:54:44.400Z,63.40
2022-11-26T19:57:13.271Z,62.20
2022-11-26T19:59:41.957Z,62.10
2022-11-26T20:02:11.309Z,62.40
2022-11-26T20:04:39.845Z,63.40
2022-11-26T20:07:08.828Z,63.00
2022-11-26T20:09:38.366Z,63.00
2022-11-26T20:12:08.999Z,62.60
2022-11-26T20:14:37.533Z,62.80
2022-11-26T20:17:06.220Z,62.20
2022-11-26T20:19:34.830Z,60.40
2022-11-26T20:22:03.400Z,58.60
2022-11-26T20:24:32.181Z,59.90
2022-11-26T20:27:00.713Z,58.80
2022-11-26T20:29:30.645Z,59.50
2022-11-26T20:31:59.247Z,58.80
2022-11-26T20:34:30.077Z,58.80
2022-11-26T20:36:58.771Z,59.90
2022-11-26T20:39:28.820Z,61.10
2022-11-26T20:41:57.386Z,62.10
2022-11-26T20:44:26.946Z,64.10
2022-11-26T20:46:57.537Z,65.90
2022-11-26T20:49:30.799Z,65.90
2022-11-26T20:52:02.232Z,64.40
2022-11-26T20:54:31.515Z,65.10
2022-11-26T20:57:00.391Z,64.40
2022-11-26T20:59:28.991Z,65.80
2022-11-26T21:01:58.883Z,64.90
2022-11-26T21:04:27.642Z,65.30
2022-11-26T21:06:56.284Z,65.90
2022-11-26T21:09:24.899Z,65.80
2022-11-26T21:11:53.626Z,66.00
2022-11-26T21:14:22.352Z,65.30
2022-11-26T21:16:51.096Z,65.50
2022-11-26T21:19:21.123Z,66.10
2022-11-26T21:21:49.671Z,65.80
2022-11-26T21:24:18.698Z,66.10
2022-11-26T21:26:47.236Z,66.10
2022-11-26T21:29:16.824Z,66.10
2022-11-26T21:31:45.489Z,66.00
2022-11-26T21:34:14.723Z,66.40
2022-11-26T21:36:44.874Z,66.80
2022-11-26T21:39:16.051Z,66.50
2022-11-26T21:41:44.785Z,66.40
2022-11-26T21:44:13.436Z,65.90
2022-11-26T21:46:42.240Z,65.80
2022-11-26T21:49:11.226Z,65.80
2022-11-26T21:51:39.697Z,65.90
2022-11-26T21:54:09.954Z,65.90
2022-11-26T21:56:38.648Z,65.20
2022-11-26T21:59:07.411Z,65.90
2022-11-26T22:01:36.995Z,65.90
2022-11-26T22:04:07.423Z,65.50
2022-11-26T22:06:36.244Z,65.90
2022-11-26T22:09:05.583Z,65.50
2022-11-26T22:11:36.914Z,66.20
2022-11-26T22:14:06.374Z,66.40
2022-11-26T22:16:35.333Z,66.90
2022-11-26T22:19:04.414Z,67.70
2022-11-26T22:21:34.227Z,68.70
2022-11-26T22:24:03.788Z,68.90
2022-11-26T22:26:33.002Z,68.50
2022-11-26T22:29:03.142Z,68.60
2022-11-26T22:31:32.572Z,68.20
2022-11-26T22:34:02.440Z,68.30
2022-11-26T22:36:31.254Z,68.90
2022-11-26T22:39:00.283Z,69.20
2022-11-26T22:41:28.822Z,69.00
2022-11-26T22:43:59.137Z,68.70
2022-11-26T22:46:29.339Z,67.70
2022-11-26T22:48:59.441Z,68.50
2022-11-26T22:51:29.179Z,68.10
2022-11-26T22:53:58.688Z,68.20
2022-11-26T22:56:27.795Z,69.50
2022-11-26T22:58:56.866Z,71.80
2022-11-26T23:01:26.243Z,72.70
2022-11-26T23:03:56.900Z,74.90
2022-11-26T23:06:26.441Z,74.90
2022-11-26T23:08:55.972Z,74.70
2022-11-26T23:11:26.649Z,73.90
2022-11-26T23:13:55.895Z,74.20
2022-11-26T23:16:25.258Z,73.20
2022-11-26T23:18:54.829Z,71.90
2022-11-26T23:21:25.657Z,71.70
2022-11-26T23:23:54.567Z,70.80
2022-11-26T23:26:27.270Z,70.90
2022-11-26T23:28:56.391Z,70.00
2022-11-26T23:31:26.237Z,70.20
2022-11-26T23:33:55.129Z,70.70
2022-11-26T23:36:25.666Z,71.20
2022-11-26T23:38:54.374Z,69.30
2022-11-26T23:41:22.813Z,67.50
2022-11-26T23:43:51.485Z,67.70
2022-11-26T23:46:20.912Z,68.10
2022-11-26T23:48:50.152Z,69.40
2022-11-26T23:51:19.577Z,69.40
2022-11-26T23:53:50.598Z,69.40
2022-11-26T23:56:20.088Z,67.80
2022-11-26T23:58:49.595Z,67.30
